Data for 12/09/2013

Time Sea-Level Adjusted Pressure Absolute Pressure Temperature Relative Humidity Dew Point   
(mb) (inHg) (mb) (inHg) (C) (F) (%) (C) (F)
00:05 1020 30.12 849 25.07 -22.4 -8.2 80 -24.9 -12.8
00:10 1020 30.12 849 25.07 -22 -7.5 81 -24.4 -11.9
00:15 1020 30.12 849 25.07 -21.5 -6.7 81 -24 -11.2
00:20 1020 30.12 849 25.07 -21.8 -7.2 75 -25.1 -13.1
00:25 1020 30.12 849 25.07 -22.8 -9 80 -25.3 -13.6
00:30 1020 30.12 849 25.07 -22.6 -8.6 80 -25.1 -13.2
00:35 1020 30.12 849 25.07 -22.1 -7.7 79 -24.8 -12.6
00:40 1020 30.12 849 25.07 -21.9 -7.4 76 -25 -13.1
00:45 1020 30.12 849 25.07 -22.4 -8.4 75 -25.7 -14.3
00:50 1020 30.12 849 25.07 -22.8 -9 78 -25.6 -14
00:55 1020 30.12 849 25.07 -22.7 -8.8 79 -25.4 -13.6
01:00 1020 30.12 849 25.07 -22.5 -8.6 77 -25.6 -14
01:05 1020 30.12 849 25.07 -22.9 -9.3 79 -25.6 -14.1
01:10 1020 30.12 849 25.07 -23 -9.3 80 -25.5 -13.9
01:15 1020 30.12 849 25.07 -22.8 -9.1 80 -25.4 -13.7
01:20 1020 30.12 849 25.07 -23 -9.5 80 -25.7 -14.2
01:25 1020 30.12 849 25.07 -23.1 -9.5 79 -25.8 -14.5
01:30 1020 30.12 849 25.07 -23.1 -9.5 80 -25.6 -14.1
01:35 1020 30.12 849 25.07 -22.9 -9.1 79 -25.5 -14
01:40 1019 30.09 849 25.07 -23 -9.4 78 -25.8 -14.4
01:45 1020 30.12 849 25.07 -22.8 -9 75 -26.1 -14.9
01:50 1020 30.12 849 25.07 -22.8 -9 77 -25.8 -14.5
01:55 1020 30.12 849 25.07 -23.1 -9.5 75 -26.3 -15.4
02:00 1019 30.09 849 25.07 -23.4 -10.1 78 -26.2 -15.1
02:05 1019 30.09 849 25.07 -23.2 -9.8 76 -26.3 -15.4
02:10 1019 30.09 849 25.07 -23.1 -9.5 74 -26.6 -15.8
02:15 1019 30.09 849 25.07 -23.1 -9.5 74 -26.4 -15.6
02:20 1020 30.12 849 25.07 -23 -9.5 74 -26.5 -15.7
02:25 1020 30.12 849 25.07 -23.2 -9.7 75 -26.5 -15.6
02:30 1020 30.12 849 25.07 -23.1 -9.6 75 -26.4 -15.6
02:35 1020 30.12 849 25.07 -23 -9.3 75 -26.3 -15.3
02:40 1020 30.12 849 25.07 -22.9 -9.1 76 -26 -14.9
02:45 1020 30.12 849 25.07 -22.9 -9.2 75 -26.2 -15.2
02:50 1020 30.12 849 25.07 -23 -9.4 76 -26.1 -15
02:55 1020 30.12 849 25.07 -23 -9.4 75 -26.3 -15.3
03:00 1020 30.12 849 25.07 -23 -9.5 76 -26.2 -15.1
03:05 1020 30.12 849 25.07 -23 -9.3 75 -26.3 -15.4
03:10 1020 30.12 849 25.07 -23.1 -9.6 76 -26.3 -15.3
03:15 1020 30.12 849 25.07 -23 -9.4 77 -26 -14.8
03:20 1020 30.12 849 25.07 -22.9 -9.2 78 -25.8 -14.4
03:25 1020 30.12 849 25.07 -22.9 -9.2 77 -25.9 -14.6
03:30 1020 30.12 849 25.07 -23 -9.4 76 -26.1 -14.9
03:35 1020 30.12 849 25.07 -23.2 -9.7 77 -26.2 -15.1
03:40 1020 30.12 849 25.07 -23.3 -9.9 79 -25.9 -14.7
03:45 1020 30.12 849 25.07 -23.3 -10 82 -25.7 -14.2
03:50 1020 30.12 849 25.07 -23 -9.4 81 -25.4 -13.7
03:55 1020 30.12 849 25.07 -22.7 -8.9 80 -25.3 -13.6
04:00 1020 30.12 849 25.07 -22.4 -8.3 78 -25.2 -13.4
04:05 1020 30.12 849 25.07 -22.3 -8.1 80 -24.9 -12.8
04:10 1020 30.12 849 25.07 -22 -7.7 77 -25 -13.1
04:15 1020 30.12 849 25.07 -22.2 -8 78 -25.1 -13.2
04:20 1020 30.12 849 25.07 -22.2 -8 78 -25.1 -13.2
04:25 1019 30.09 849 25.07 -22.2 -8 76 -25.3 -13.6
04:30 1019 30.09 848 25.04 -22.3 -8.2 77 -25.3 -13.6
04:35 1019 30.09 849 25.07 -22.2 -8 76 -25.4 -13.6
04:40 1019 30.09 849 25.07 -22 -7.7 76 -25.2 -13.3
04:45 1019 30.09 849 25.07 -22.2 -8 75 -25.5 -13.8
04:50 1020 30.12 849 25.07 -22.5 -8.6 77 -25.5 -13.9
04:55 1020 30.12 849 25.07 -22.4 -8.2 75 -25.6 -14.1
05:00 1020 30.12 849 25.07 -22.4 -8.3 77 -25.5 -13.8
05:05 1020 30.12 849 25.07 -22.4 -8.2 76 -25.6 -14
05:10 1020 30.12 849 25.07 -22.2 -7.9 77 -25.3 -13.5
05:15 1020 30.12 849 25.07 -22 -7.5 77 -25 -13
05:20 1020 30.12 849 25.07 -21.6 -6.8 75 -24.9 -12.8
05:25 1020 30.12 849 25.07 -21.1 -6 74 -24.5 -12.2
05:30 1020 30.12 849 25.07 -20.8 -5.4 73 -24.5 -12.1
05:35 1019 30.09 849 25.07 -20.5 -4.9 72 -24.3 -11.8
05:40 1020 30.12 849 25.07 -20.6 -5 73 -24.2 -11.6
05:45 1019 30.09 849 25.07 -20.2 -4.3 74 -23.8 -10.8
05:50 1019 30.09 849 25.07 -20.1 -4.2 73 -23.8 -10.8
05:55 1019 30.09 849 25.07 -19.9 -3.9 74 -23.5 -10.2
06:00 1019 30.09 849 25.07 -19.8 -3.6 74 -23.3 -10
06:05 1020 30.12 849 25.07 -19.7 -3.4 77 -22.8 -9.1
06:10 1019 30.09 849 25.07 -20 -3.9 77 -23 -9.4
06:15 1019 30.09 849 25.07 -20.3 -4.5 77 -23.3 -9.9
06:20 1019 30.09 848 25.04 -20.5 -4.8 78 -23.3 -10
06:25 1019 30.09 849 25.07 -20.4 -4.7 79 -23.1 -9.6
06:30 1019 30.09 849 25.07 -20.2 -4.4 79 -23 -9.4
06:35 1019 30.09 849 25.07 -19.9 -3.9 77 -23 -9.3
06:40 1019 30.09 849 25.07 -19.6 -3.2 77 -22.7 -8.8
06:45 1019 30.09 848 25.04 -19.4 -2.9 78 -22.3 -8.2
06:50 1019 30.09 849 25.07 -19.3 -2.8 77 -22.4 -8.4
06:55 1019 30.09 849 25.07 -19.3 -2.7 76 -22.5 -8.5
07:00 1019 30.09 849 25.07 -19.3 -2.7 77 -22.3 -8.2
07:05 1019 30.09 849 25.07 -19.2 -2.5 77 -22.3 -8.2
07:10 1019 30.09 848 25.04 -19.1 -2.4 77 -22.2 -8
07:15 1019 30.09 848 25.04 -19 -2.2 76 -22.2 -8
07:20 1019 30.09 849 25.07 -19 -2.2 77 -22.1 -7.8
07:25 1019 30.09 849 25.07 -18.9 -2 76 -22.2 -7.9
07:30 1020 30.12 849 25.07 -18.8 -1.8 75 -22.2 -7.9
07:35 1019 30.09 849 25.07 -18.6 -1.6 75 -22.1 -7.7
07:40 1020 30.12 849 25.07 -18.5 -1.2 73 -22.2 -8
07:45 1020 30.12 849 25.07 -18.3 -1 73 -22.1 -7.8
07:50 1020 30.12 849 25.07 -18.2 -0.8 74 -21.8 -7.3
07:55 1020 30.12 849 25.07 -18.2 -0.8 74 -21.8 -7.3
08:00 1020 30.12 849 25.07 -18.2 -0.8 72 -22 -7.6
08:05 1020 30.12 849 25.07 -18.2 -0.7 72 -22 -7.7
08:10 1020 30.12 849 25.07 -18.1 -0.6 73 -21.8 -7.2
08:15 1020 30.12 849 25.07 -18 -0.5 73 -21.8 -7.2
08:20 1020 30.12 849 25.07 -18 -0.3 70 -22.2 -7.9
08:25 1020 30.12 849 25.07 -17.9 -0.2 69 -22.2 -8
08:30 1020 30.12 849 25.07 -17.8 0 68 -22.4 -8.3
08:35 1020 30.12 849 25.07 -17.6 0.4 66 -22.4 -8.3
08:40 1020 30.12 849 25.07 -17.4 0.7 67 -22.1 -7.8
08:45 1020 30.12 849 25.07 -17.2 1 67 -22 -7.6
08:50 1020 30.12 849 25.07 -17 1.4 66 -21.9 -7.5
08:55 1020 30.12 849 25.07 -16.8 1.7 66 -21.8 -7.3
09:00 1020 30.12 849 25.07 -16.8 1.9 65 -21.8 -7.2
09:05 1020 30.12 849 25.07 -16.6 2 65 -21.8 -7.3
09:10 1020 30.12 849 25.07 -16.5 2.2 67 -21.3 -6.4
09:15 1020 30.12 849 25.07 -16.5 2.3 70 -20.7 -5.3
09:20 1020 30.12 849 25.07 -16.6 2.2 74 -20.1 -4.2
09:25 1020 30.12 849 25.07 -16.6 2.1 67 -21.3 -6.4
09:30 1020 30.12 849 25.07 -16.5 2.3 72 -20.3 -4.6
09:35 1020 30.12 849 25.07 -16.4 2.4 67 -21.2 -6.1
09:40 1020 30.12 849 25.07 -16.3 2.7 66 -21.2 -6.2
09:45 1020 30.12 849 25.07 -16.1 3.1 70 -20.4 -4.7
09:50 1020 30.12 849 25.07 -15.8 3.5 74 -19.5 -3.1
09:55 1020 30.12 849 25.07 -15.9 3.4 68 -20.5 -4.9
10:00 1020 30.12 849 25.07 -15.8 3.5 67 -20.7 -5.2
10:05 1020 30.12 849 25.07 -15.6 3.9 64 -20.9 -5.6
10:10 1020 30.12 849 25.07 -15.3 4.4 66 -20.3 -4.6
10:15 1020 30.12 850 25.1 -15.1 4.7 65 -20.4 -4.7
10:20 1020 30.12 849 25.07 -15 5 62 -20.8 -5.4
10:25 1020 30.12 849 25.07 -14.7 5.5 64 -20.1 -4.2
10:30 1020 30.12 849 25.07 -14.5 5.9 74 -18.2 -0.7
10:35 1020 30.12 850 25.1 -14.5 5.9 75 -18.1 -0.6
10:40 1021 30.15 850 25.1 -14.7 5.6 74 -18.4 -1
10:45 1021 30.15 850 25.1 -15 5 75 -18.6 -1.5
10:50 1021 30.15 850 25.1 -15 4.9 76 -18.4 -1.1
10:55 1021 30.15 850 25.1 -14.9 5.2 74 -18.5 -1.3
11:00 1021 30.15 850 25.1 -14.3 6.2 69 -18.9 -2
11:05 1021 30.15 850 25.1 -14.1 6.5 68 -18.8 -1.9
11:10 1021 30.15 850 25.1 -13.7 7.3 66 -18.8 -1.9
11:15 1021 30.15 850 25.1 -13.4 7.9 64 -18.9 -2
11:20 1021 30.15 850 25.1 -13.3 8.2 63 -18.8 -1.9
11:25 1021 30.15 850 25.1 -13.1 8.4 64 -18.6 -1.5
11:30 1021 30.15 850 25.1 -13.2 8.3 64 -18.7 -1.6
11:35 1021 30.15 850 25.1 -13.1 8.3 64 -18.7 -1.6
11:40 1021 30.15 850 25.1 -13.1 8.4 63 -18.7 -1.7
11:45 1021 30.15 850 25.1 -13 8.6 64 -18.5 -1.3
11:50 1021 30.15 850 25.1 -13.2 8.3 64 -18.6 -1.4
11:55 1021 30.15 850 25.1 -13.2 8.3 63 -18.7 -1.7
12:00 1021 30.15 850 25.1 -12.7 9.2 62 -18.6 -1.4
12:05 1021 30.15 850 25.1 -12.5 9.5 62 -18.3 -1
12:10 1021 30.15 850 25.1 -12.3 9.9 64 -17.8 0
12:15 1021 30.15 850 25.1 -12.1 10.3 68 -16.9 1.6
12:20 1021 30.15 850 25.1 -11.7 10.9 69 -16.3 2.6
12:25 1021 30.15 850 25.1 -11.4 11.5 70 -15.8 3.5
12:30 1021 30.15 850 25.1 -11.2 11.8 69 -15.8 3.6
12:35 1021 30.15 850 25.1 -11 12.2 70 -15.5 4
12:40 1021 30.15 850 25.1 -10.6 12.9 67 -15.6 3.9
12:45 1021 30.15 850 25.1 -10.8 12.6 70 -15.3 4.5
12:50 1021 30.15 850 25.1 -10.7 12.7 71 -14.9 5.1
12:55 1021 30.15 850 25.1 -10.8 12.7 72 -14.8 5.4
13:00 1021 30.15 850 25.1 -10.7 12.7 73 -14.6 5.7
13:05 1021 30.15 850 25.1 -10.8 12.6 76 -14.3 6.3
13:10 1021 30.15 850 25.1 -10.8 12.5 77 -14.1 6.7
13:15 1021 30.15 850 25.1 -10.8 12.6 78 -13.9 7
13:20 1021 30.15 850 25.1 -10.7 12.8 79 -13.6 7.5
13:25 1021 30.15 850 25.1 -10.3 13.5 78 -13.4 7.8
13:30 1021 30.15 850 25.1 -9.8 14.3 75 -13.4 7.8
13:35 1021 30.15 850 25.1 -10.2 13.6 77 -13.5 7.6
13:40 1021 30.15 850 25.1 -10.6 12.9 80 -13.5 7.7
13:45 1021 30.15 850 25.1 -10.5 13.1 78 -13.7 7.4
13:50 1021 30.15 850 25.1 -10.2 13.6 77 -13.5 7.8
13:55 1021 30.15 850 25.1 -9.9 14.1 76 -13.4 7.8
14:00 1021 30.15 850 25.1 -9.8 14.4 76 -13.3 8.1
14:05 1021 30.15 850 25.1 -9.4 15 75 -13 8.6
14:10 1021 30.15 850 25.1 -9.4 15.2 74 -13.1 8.3
14:15 1021 30.15 850 25.1 -9.4 15.2 75 -13 8.6
14:20 1021 30.15 850 25.1 -9.8 14.3 77 -13.2 8.2
14:25 1021 30.15 850 25.1 -10 14 78 -13.2 8.3
14:30 1020 30.12 850 25.1 -9.8 14.4 77 -13.1 8.4
14:35 1020 30.12 850 25.1 -9.9 14.1 78 -13 8.6
14:40 1020 30.12 849 25.07 -9.8 14.4 78 -13 8.7
14:45 1020 30.12 849 25.07 -9.5 15 76 -12.9 8.7
14:50 1020 30.12 849 25.07 -9.1 15.6 75 -12.8 8.9
14:55 1020 30.12 849 25.07 -8.8 16.1 74 -12.7 9.1
15:00 1020 30.12 849 25.07 -8.8 16.2 74 -12.7 9.2
15:05 1020 30.12 849 25.07 -9 15.7 75 -12.8 9
15:10 1020 30.12 849 25.07 -9 15.8 74 -12.9 8.8
15:15 1020 30.12 849 25.07 -8.9 16 74 -12.8 9
15:20 1020 30.12 849 25.07 -8.9 16.1 73 -12.8 9
15:25 1020 30.12 849 25.07 -8.8 16.1 73 -12.8 9
15:30 1020 30.12 849 25.07 -8.8 16.3 73 -12.8 9
15:35 1020 30.12 849 25.07 -8.8 16.2 73 -12.8 9
15:40 1020 30.12 849 25.07 -8.9 16 73 -12.9 8.7
15:45 1020 30.12 849 25.07 -8.9 16 71 -13.2 8.2
15:50 1020 30.12 849 25.07 -10.1 13.7 76 -13.7 7.4
15:55 1020 30.12 849 25.07 -10.7 12.7 78 -13.8 7.1
16:00 1020 30.12 849 25.07 -10.4 13.3 75 -14 6.9
16:05 1020 30.12 849 25.07 -10.8 12.7 77 -14.1 6.7
16:10 1020 30.12 849 25.07 -10.8 12.5 75 -14.4 6.1
16:15 1020 30.12 849 25.07 -10.8 12.6 75 -14.4 6.1
16:20 1020 30.12 849 25.07 -10.7 12.8 75 -14.3 6.3
16:25 1020 30.12 849 25.07 -10.6 12.9 76 -14 6.7
16:30 1020 30.12 849 25.07 -10.5 13.1 76 -14 6.8
16:35 1020 30.12 849 25.07 -10.4 13.3 76 -13.9 6.9
16:40 1020 30.12 849 25.07 -10.3 13.5 75 -13.9 7
16:45 1020 30.12 849 25.07 -10.3 13.4 75 -14 6.8
16:50 1020 30.12 849 25.07 -10.3 13.4 75 -13.9 6.9
16:55 1020 30.12 849 25.07 -10.2 13.7 75 -13.8 7.2
17:00 1020 30.12 849 25.07 -10 13.9 74 -13.9 7.1
17:05 1020 30.12 849 25.07 -10.1 13.8 74 -13.9 6.9
17:10 1020 30.12 849 25.07 -10 14.1 74 -13.7 7.3
17:15 1020 30.12 849 25.07 -9.7 14.5 76 -13.3 8.1
17:20 1020 30.12 849 25.07 -9.5 14.9 74 -13.3 8.1
17:25 1020 30.12 849 25.07 -9.4 15.2 74 -13.2 8.2
17:30 1020 30.12 849 25.07 -9.5 15 77 -12.7 9.1
17:35 1020 30.12 849 25.07 -9.5 15 78 -12.7 9.1
17:40 1020 30.12 849 25.07 -9.5 15 76 -12.9 8.8
17:45 1020 30.12 849 25.07 -9.4 15 76 -12.9 8.8
17:50 1020 30.12 849 25.07 -9.2 15.4 76 -12.7 9.2
17:55 1020 30.12 849 25.07 -9.3 15.3 74 -13.2 8.3
18:00 1020 30.12 849 25.07 -9.5 14.9 75 -13.2 8.3
18:05 1020 30.12 849 25.07 -9.5 15 74 -13.2 8.3
18:10 1020 30.12 849 25.07 -9.4 15.1 74 -13.3 8.1
18:15 1020 30.12 849 25.07 -9.5 15 73 -13.4 7.9
18:20 1020 30.12 849 25.07 -9.4 15 74 -13.2 8.3
18:25 1020 30.12 849 25.07 -9.5 15 74 -13.2 8.2
18:30 1020 30.12 849 25.07 -9.3 15.2 74 -13.1 8.4
18:35 1020 30.12 849 25.07 -9.3 15.3 73 -13.3 8.1
18:40 1020 30.12 849 25.07 -9.2 15.5 73 -13.2 8.2
18:45 1020 30.12 849 25.07 -9 15.8 73 -13.1 8.5
18:50 1020 30.12 849 25.07 -9 15.8 72 -13.2 8.2
18:55 1020 30.12 849 25.07 -8.9 16 71 -13.2 8.3
19:00 1020 30.12 849 25.07 -8.9 16 73 -12.9 8.7
19:05 1020 30.12 849 25.07 -8.9 16 72 -13.1 8.4
19:10 1020 30.12 849 25.07 -8.4 16.8 71 -12.8 8.9
19:15 1020 30.12 849 25.07 -8.3 17.1 69 -13 8.7
19:20 1020 30.12 849 25.07 -8.5 16.6 71 -12.9 8.8
19:25 1020 30.12 849 25.07 -8.6 16.5 76 -12.2 10.1
19:30 1020 30.12 849 25.07 -8.8 16.2 77 -12.1 10.1
19:35 1020 30.12 849 25.07 -8.8 16.1 78 -12.1 10.2
19:40 1020 30.12 849 25.07 -8.9 15.9 78 -12.1 10.1
19:45 1020 30.12 849 25.07 -8.9 16 78 -12 10.4
19:50 1020 30.12 849 25.07 -8.9 15.9 78 -12.1 10.2
19:55 1020 30.12 849 25.07 -9.2 15.5 78 -12.3 9.8
20:00 1020 30.12 849 25.07 -9.3 15.3 79 -12.3 9.8
20:05 1020 30.12 849 25.07 -9.2 15.4 79 -12.3 9.9
20:10 1020 30.12 849 25.07 -9.2 15.4 79 -12.1 10.1
20:15 1020 30.12 849 25.07 -9.2 15.4 79 -12.2 10
20:20 1020 30.12 849 25.07 -9.3 15.3 79 -12.3 9.8
20:25 1020 30.12 849 25.07 -9.4 15.1 79 -12.4 9.6
20:30 1020 30.12 849 25.07 -9.3 15.3 78 -12.4 9.7
20:35 1020 30.12 849 25.07 -9.3 15.3 79 -12.3 9.8
20:40 1020 30.12 849 25.07 -9.2 15.4 78 -12.4 9.7
20:45 1020 30.12 849 25.07 -9.2 15.5 78 -12.4 9.7
20:50 1020 30.12 849 25.07 -9.1 15.6 77 -12.4 9.7
20:55 1020 30.12 849 25.07 -9.1 15.7 78 -12.3 9.8
21:00 1020 30.12 849 25.07 -9.1 15.7 77 -12.4 9.7
21:05 1020 30.12 849 25.07 -9 15.8 77 -12.4 9.6
21:10 1020 30.12 849 25.07 -9 15.8 76 -12.4 9.7
21:15 1020 30.12 849 25.07 -8.9 15.9 76 -12.5 9.5
21:20 1020 30.12 849 25.07 -8.8 16.1 75 -12.5 9.5
21:25 1020 30.12 849 25.07 -8.7 16.3 73 -12.7 9.2
21:30 1020 30.12 849 25.07 -8.6 16.6 73 -12.6 9.4
21:35 1020 30.12 849 25.07 -8.5 16.7 71 -12.8 9
21:40 1020 30.12 849 25.07 -8.3 17 71 -12.8 9
21:45 1020 30.12 849 25.07 -8.3 17.1 71 -12.6 9.2
21:50 1020 30.12 849 25.07 -8.2 17.3 70 -12.7 9.1
21:55 1020 30.12 849 25.07 -8.2 17.2 71 -12.6 9.3
22:00 1020 30.12 849 25.07 -8.4 17 72 -12.6 9.3
22:05 1020 30.12 849 25.07 -8.5 16.7 71 -12.9 8.7
22:10 1020 30.12 849 25.07 -8.5 16.7 71 -12.9 8.9
22:15 1020 30.12 849 25.07 -8.5 16.7 71 -12.9 8.8
22:20 1019 30.09 849 25.07 -8.6 16.6 71 -12.9 8.7
22:25 1019 30.09 849 25.07 -8.6 16.4 70 -13.1 8.4
22:30 1019 30.09 849 25.07 -8.5 16.8 69 -13.1 8.4
22:35 1019 30.09 849 25.07 -8.3 17.1 68 -13.1 8.4
22:40 1019 30.09 848 25.04 -8.1 17.5 68 -13 8.6
22:45 1019 30.09 848 25.04 -7.9 17.8 67 -13.1 8.4
22:50 1019 30.09 848 25.04 -7.7 18.1 67 -12.9 8.8
22:55 1019 30.09 848 25.04 -7.8 17.9 68 -12.8 9
23:00 1019 30.09 848 25.04 -7.8 17.9 66 -13.1 8.4
23:05 1019 30.09 848 25.04 -7.7 18.2 66 -12.9 8.8
23:10 1019 30.09 848 25.04 -7.7 18.2 67 -12.8 9
23:15 1019 30.09 848 25.04 -7.7 18.1 66 -12.9 8.7
23:20 1019 30.09 848 25.04 -7.7 18.2 65 -13.1 8.4
23:25 1019 30.09 848 25.04 -7.5 18.4 65 -12.9 8.7
23:30 1019 30.09 848 25.04 -7.5 18.4 67 -12.7 9.1
23:35 1019 30.09 848 25.04 -7.4 18.7 65 -12.8 8.9
23:40 1019 30.09 848 25.04 -7 19.5 62 -13 8.6
23:45 1019 30.09 848 25.04 -6.7 20 63 -12.6 9.3
23:50 1019 30.09 848 25.04 -6.8 19.8 63 -12.7 9.2
23:55 1019 30.09 848 25.04 -6.9 19.7 64 -12.7 9.2
24:00 1018 30.06 848 25.04 -6.7 19.9 62 -12.8 9